Time;durP1;ratioP1;P1;durP2;ratioP2;P2;SDS_P1;SDS_P2;PMS_P1;PMS_P2;Temp;Humidity;BMP_temperature;BMP_pressure;BME280_temperature;BME280_humidity;BME280_pressure;Samples;Min_cycle;Max_cycle;Signal;HPM_P1;HPM_P2
2021/01/29 00:00:23;;;;;;;14.60;5.70;;;3.70;99.90;;;;;;4969585;29;20050;-87
2021/01/29 00:02:51;;;;;;;16.30;7.43;;;3.80;99.90;;;;;;4966347;29;20063;-87
2021/01/29 00:08:40;;;;;;;17.50;7.53;;;3.80;99.90;;;;;;4949658;29;20083;-87
2021/01/29 00:11:07;;;;;;;18.23;7.25;;;3.80;99.90;;;;;;4933974;29;20047;-87
2021/01/29 00:13:33;;;;;;;14.60;6.63;;;3.80;99.90;;;;;;4934259;29;20115;-86
2021/01/29 00:15:58;;;;;;;20.48;9.10;;;3.80;99.90;;;;;;4919082;29;20031;-86
2021/01/29 00:18:24;;;;;;;23.13;9.57;;;3.80;99.90;;;;;;4934307;29;20038;-87
2021/01/29 00:20:50;;;;;;;24.75;9.48;;;3.80;99.90;;;;;;4932064;29;20032;-87
2021/01/29 00:23:17;;;;;;;25.05;9.32;;;3.80;99.90;;;;;;4931880;29;20269;-86
2021/01/29 00:25:47;;;;;;;24.67;9.25;;;3.80;99.90;;;;;;4934159;29;20039;-86
2021/01/29 00:28:14;;;;;;;27.55;10.68;;;3.80;99.90;;;;;;4917253;29;20036;-87
2021/01/29 00:30:40;;;;;;;24.95;9.98;;;3.80;99.90;;;;;;4918342;29;20063;-87
2021/01/29 00:33:09;;;;;;;22.80;9.57;;;3.90;99.90;;;;;;4950014;29;20031;-87
2021/01/29 00:35:36;;;;;;;24.95;10.40;;;3.90;99.90;;;;;;4933838;29;20514;-87
2021/01/29 00:38:04;;;;;;;26.40;11.02;;;3.90;99.90;;;;;;4949706;29;20126;-88
2021/01/29 00:40:29;;;;;;;32.60;12.85;;;3.90;99.90;;;;;;4949913;29;20055;-87
2021/01/29 00:42:56;;;;;;;28.67;9.95;;;3.90;99.90;;;;;;4930976;29;20032;-87
2021/01/29 00:45:24;;;;;;;24.73;9.02;;;3.90;99.90;;;;;;4933755;29;20046;-86
2021/01/29 00:47:49;;;;;;;29.58;12.05;;;3.90;99.90;;;;;;4917851;29;20038;-87
2021/01/29 00:50:16;;;;;;;31.00;12.02;;;3.90;99.90;;;;;;4933554;29;20134;-87
2021/01/29 00:52:41;;;;;;;31.65;11.95;;;3.90;99.90;;;;;;4917475;29;20099;-88
2021/01/29 00:55:08;;;;;;;29.30;12.00;;;3.90;99.90;;;;;;4949322;29;20034;-87
2021/01/29 00:57:41;;;;;;;29.63;10.80;;;4.00;99.90;;;;;;4933599;29;20057;-87
2021/01/29 01:00:35;;;;;;;30.27;12.00;;;4.00;99.90;;;;;;4938446;29;20035;-88
2021/01/29 01:03:06;;;;;;;34.47;12.07;;;4.00;99.90;;;;;;4932047;29;20064;-86
2021/01/29 01:05:32;;;;;;;36.15;13.52;;;4.00;99.90;;;;;;4933255;29;20150;-87
2021/01/29 01:08:00;;;;;;;30.58;12.10;;;4.00;99.90;;;;;;4932782;29;20055;-88
2021/01/29 01:10:54;;;;;;;38.03;13.45;;;4.00;99.90;;;;;;4892987;29;20508;-87
2021/01/29 01:13:46;;;;;;;27.65;11.38;;;4.00;99.90;;;;;;4949001;29;20035;-87
2021/01/29 01:16:30;;;;;;;35.63;12.75;;;4.00;99.90;;;;;;4934056;29;20043;-87
2021/01/29 01:18:58;;;;;;;34.30;13.43;;;4.00;99.90;;;;;;4917321;29;20023;-87
2021/01/29 01:21:39;;;;;;;;;;;4.00;99.90;;;;;;4914005;29;20028;-87
2021/01/29 01:24:23;;;;;;;33.15;11.27;;;4.00;99.90;;;;;;4948795;29;19935;-87
2021/01/29 01:26:49;;;;;;;26.73;10.70;;;4.10;99.90;;;;;;4933064;29;20031;-87
2021/01/29 01:29:49;;;;;;;;;;;4.10;99.90;;;;;;4947397;29;20104;-87
2021/01/29 01:32:15;;;;;;;33.08;11.68;;;4.10;99.90;;;;;;4945788;29;19914;-87
2021/01/29 01:35:05;;;;;;;32.47;10.73;;;4.10;99.90;;;;;;4932841;29;20035;-87
2021/01/29 01:37:31;;;;;;;33.47;12.27;;;4.10;99.90;;;;;;4932265;29;20032;-87
2021/01/29 01:40:14;;;;;;;32.88;12.20;;;4.20;99.90;;;;;;4934994;29;20040;-87
2021/01/29 01:42:40;;;;;;;31.52;11.32;;;4.10;99.90;;;;;;4932549;29;20031;-87
2021/01/29 01:45:55;;;;;;;30.48;12.25;;;4.10;99.90;;;;;;4932391;29;20039;-87
2021/01/29 01:48:45;;;;;;;29.38;11.63;;;4.20;99.90;;;;;;4917233;29;20073;-87
2021/01/29 01:51:41;;;;;;;30.80;11.15;;;4.20;99.90;;;;;;4887395;29;20041;-88
2021/01/29 01:54:23;;;;;;;28.63;10.02;;;4.20;99.90;;;;;;4893138;29;20548;-88
2021/01/29 01:56:52;;;;;;;33.45;10.70;;;4.30;99.90;;;;;;4908937;29;20433;-87
2021/01/29 01:59:32;;;;;;;28.33;12.60;;;4.30;99.90;;;;;;4892368;29;20048;-87
2021/01/29 02:02:24;;;;;;;29.83;11.18;;;4.30;99.90;;;;;;4892449;29;20029;-87
2021/01/29 02:05:31;;;;;;;23.77;9.52;;;4.30;99.90;;;;;;4895535;29;20043;-87
2021/01/29 02:08:17;;;;;;;29.67;11.70;;;4.30;99.90;;;;;;4860932;29;20534;-88
2021/01/29 02:11:21;;;;;;;25.65;10.70;;;4.40;99.90;;;;;;4857247;29;20058;-87
2021/01/29 02:14:05;;;;;;;24.52;10.38;;;4.50;99.90;;;;;;4848096;29;20041;-87
2021/01/29 02:16:54;;;;;;;22.80;9.77;;;4.50;99.90;;;;;;4842561;29;20185;-87
2021/01/29 02:20:16;;;;;;;26.35;10.02;;;4.50;99.90;;;;;;4860743;29;20032;-88
2021/01/29 02:23:14;;;;;;;28.48;11.05;;;4.60;99.90;;;;;;4876648;29;20047;-88
2021/01/29 02:26:40;;;;;;;32.33;10.95;;;4.60;99.90;;;;;;4896695;29;20065;-87
2021/01/29 02:29:52;;;;;;;26.98;9.88;;;4.70;99.90;;;;;;4897852;29;20072;-87
2021/01/29 02:33:02;;;;;;;27.67;9.25;;;4.70;99.90;;;;;;4897847;29;20052;-88
2021/01/29 02:36:05;;;;;;;27.60;9.25;;;4.70;99.90;;;;;;4896682;29;20329;-87
2021/01/29 02:38:52;;;;;;;22.75;7.97;;;4.70;99.90;;;;;;4897358;29;20064;-88
2021/01/29 02:41:52;;;;;;;26.38;9.30;;;4.80;99.90;;;;;;4896445;29;20041;-88
2021/01/29 02:45:16;;;;;;;22.30;8.88;;;4.80;99.90;;;;;;4907649;29;20032;-88
2021/01/29 02:48:27;;;;;;;28.75;9.80;;;4.80;99.90;;;;;;4916696;29;20099;-88
2021/01/29 02:51:13;;;;;;;20.55;7.55;;;4.90;99.90;;;;;;4933642;29;20039;-87
2021/01/29 02:54:05;;;;;;;31.60;10.00;;;4.90;99.90;;;;;;4942062;29;20046;-88
2021/01/29 02:57:25;;;;;;;21.33;8.52;;;5.00;99.90;;;;;;4936877;29;20077;-88
2021/01/29 03:00:24;;;;;;;24.92;9.25;;;5.00;99.90;;;;;;4947028;29;20035;-88
2021/01/29 03:03:15;;;;;;;21.80;9.13;;;5.00;99.90;;;;;;4940322;29;20087;-88
2021/01/29 03:06:14;;;;;;;19.58;8.43;;;5.10;99.90;;;;;;4933007;29;20030;-88
2021/01/29 03:08:52;;;;;;;23.50;8.82;;;5.10;99.90;;;;;;4931274;29;20058;-88
2021/01/29 03:11:46;;;;;;;20.08;7.78;;;5.20;99.90;;;;;;4931810;29;20071;-87
2021/01/29 03:14:44;;;;;;;19.08;8.38;;;5.30;99.90;;;;;;4944280;29;20060;-88
2021/01/29 03:17:32;;;;;;;20.13;8.25;;;5.30;99.90;;;;;;4946269;29;20039;-88
2021/01/29 03:20:26;;;;;;;17.90;8.35;;;5.40;99.90;;;;;;4933753;29;20144;-88
2021/01/29 03:23:39;;;;;;;24.83;8.95;;;5.40;99.90;;;;;;4947117;29;20046;-89
2021/01/29 03:26:30;;;;;;;22.48;9.20;;;5.50;99.90;;;;;;4945119;29;20078;-88
2021/01/29 03:29:17;;;;;;;17.48;7.13;;;5.50;99.90;;;;;;4930883;29;20503;-88
2021/01/29 03:32:03;;;;;;;22.63;8.35;;;5.60;99.90;;;;;;4924714;29;20158;-89
2021/01/29 03:35:14;;;;;;;18.58;8.60;;;5.60;99.90;;;;;;4933344;29;20158;-88
2021/01/29 03:38:05;;;;;;;19.38;7.10;;;5.60;99.90;;;;;;4933107;29;20070;-88
2021/01/29 03:41:19;;;;;;;16.92;7.45;;;5.70;99.90;;;;;;4941933;29;20051;-88
2021/01/29 03:44:22;;;;;;;20.58;8.00;;;5.80;99.90;;;;;;4943157;29;20055;-88
2021/01/29 03:47:13;;;;;;;16.98;7.50;;;5.80;99.90;;;;;;4947154;29;20050;-88
2021/01/29 03:50:32;;;;;;;16.05;7.88;;;5.80;99.90;;;;;;4932004;29;20503;-86
2021/01/29 03:53:36;;;;;;;16.45;6.65;;;5.80;99.90;;;;;;4921104;29;20044;-88
2021/01/29 03:56:33;;;;;;;12.65;5.57;;;5.90;99.90;;;;;;4944567;29;20060;-88
2021/01/29 03:59:45;;;;;;;12.55;5.68;;;5.90;99.90;;;;;;4946930;29;20070;-87
2021/01/29 04:02:55;;;;;;;11.73;4.93;;;5.90;99.90;;;;;;4941341;29;20031;-87
2021/01/29 04:06:03;;;;;;;9.23;4.57;;;6.00;99.90;;;;;;4944492;29;20131;-87
2021/01/29 04:09:01;;;;;;;9.40;4.72;;;6.00;99.90;;;;;;4947535;29;20046;-88
2021/01/29 04:11:50;;;;;;;9.75;4.15;;;6.10;99.90;;;;;;4946051;29;20098;-88
2021/01/29 04:15:30;;;;;;;7.25;3.50;;;6.20;99.90;;;;;;4864725;29;20038;-88
2021/01/29 04:18:16;;;;;;;7.03;3.40;;;6.20;99.90;;;;;;4826510;29;20041;-88
2021/01/29 04:20:47;;;;;;;8.43;3.53;;;6.10;99.90;;;;;;4906811;29;20040;-88
2021/01/29 04:23:25;;;;;;;7.03;2.92;;;6.20;99.90;;;;;;4931543;29;20043;-88
2021/01/29 04:25:58;;;;;;;7.05;3.40;;;6.10;99.90;;;;;;4918130;29;20055;-88
2021/01/29 04:28:25;;;;;;;4.97;2.72;;;6.20;99.90;;;;;;4947395;29;20027;-88
2021/01/29 04:30:53;;;;;;;7.38;3.42;;;6.20;99.90;;;;;;4933597;29;20047;-87
2021/01/29 04:33:29;;;;;;;7.15;3.28;;;6.20;99.90;;;;;;4918012;29;20125;-88
2021/01/29 04:35:58;;;;;;;9.10;4.18;;;6.30;99.90;;;;;;4933670;29;20059;-88
2021/01/29 04:38:31;;;;;;;7.80;3.60;;;6.30;99.90;;;;;;4933542;29;20030;-88
2021/01/29 04:41:32;;;;;;;6.38;3.63;;;6.40;99.90;;;;;;4931748;29;20091;-89
2021/01/29 04:44:14;;;;;;;7.00;3.30;;;6.50;99.90;;;;;;4930842;29;20104;-88
2021/01/29 04:46:51;;;;;;;6.88;3.25;;;6.50;99.90;;;;;;4933497;29;20047;-88
2021/01/29 04:49:26;;;;;;;6.28;3.00;;;6.40;99.90;;;;;;4933499;29;20369;-89
2021/01/29 04:52:13;;;;;;;6.18;3.17;;;6.40;99.90;;;;;;4946914;29;20543;-88
2021/01/29 04:55:16;;;;;;;5.30;3.03;;;6.60;99.90;;;;;;4929172;29;20032;-88
2021/01/29 04:58:00;;;;;;;7.38;3.17;;;6.60;99.90;;;;;;4933151;29;20036;-88
2021/01/29 05:01:23;;;;;;;6.03;2.33;;;6.60;99.90;;;;;;4943685;29;20024;-88
2021/01/29 05:04:39;;;;;;;5.40;2.88;;;6.60;99.90;;;;;;4936644;29;20413;-88
2021/01/29 05:07:35;;;;;;;7.55;3.15;;;6.60;99.90;;;;;;4967203;23;20085;-88
2021/01/29 05:10:39;;;;;;;5.97;3.03;;;6.70;99.90;;;;;;4984311;28;20074;-88
2021/01/29 05:13:24;;;;;;;6.32;3.30;;;6.60;99.90;;;;;;4990212;28;20057;-88
2021/01/29 05:16:21;;;;;;;7.78;3.65;;;6.60;99.90;;;;;;4987486;28;20426;-88
2021/01/29 05:19:06;;;;;;;9.13;3.67;;;6.70;99.90;;;;;;4982965;28;20054;-87
2021/01/29 05:22:08;;;;;;;6.97;3.63;;;6.60;99.90;;;;;;4985692;28;20030;-88
2021/01/29 05:24:58;;;;;;;7.80;4.10;;;6.70;99.90;;;;;;4985209;28;20050;-89
2021/01/29 05:27:52;;;;;;;9.43;4.97;;;6.70;99.90;;;;;;5001867;28;20038;-88
2021/01/29 05:30:45;;;;;;;9.35;4.85;;;6.90;99.90;;;;;;4970328;28;20300;-88
2021/01/29 05:33:48;;;;;;;8.20;4.95;;;6.90;99.90;;;;;;4987027;28;20478;-88
2021/01/29 05:36:19;;;;;;;12.07;6.07;;;6.90;99.90;;;;;;5003598;28;20124;-88
2021/01/29 05:39:01;;;;;;;10.63;6.07;;;6.90;99.90;;;;;;4982442;28;20023;-88
2021/01/29 05:41:54;;;;;;;10.40;5.93;;;7.00;99.90;;;;;;4984423;28;20035;-88
2021/01/29 05:44:38;;;;;;;11.88;6.22;;;7.00;99.90;;;;;;4966399;28;20050;-88
2021/01/29 05:47:03;;;;;;;14.40;7.82;;;6.90;99.90;;;;;;4968623;28;20121;-89
2021/01/29 05:49:52;;;;;;;14.80;8.00;;;7.00;99.90;;;;;;4983729;28;20042;-88
2021/01/29 05:52:52;;;;;;;10.00;5.97;;;7.00;99.90;;;;;;4969548;28;20035;-89
2021/01/29 05:55:44;;;;;;;9.98;5.60;;;6.90;99.90;;;;;;4968643;28;20026;-89
2021/01/29 05:58:40;;;;;;;12.93;5.88;;;6.90;99.90;;;;;;4961457;28;20048;-89
2021/01/29 06:01:32;;;;;;;12.32;5.53;;;6.90;99.90;;;;;;4985729;28;20046;-89
2021/01/29 06:04:41;;;;;;;10.57;6.00;;;6.90;99.90;;;;;;4990402;28;20027;-89
2021/01/29 06:07:30;;;;;;;12.10;5.72;;;7.00;99.90;;;;;;4938974;28;20053;-89
2021/01/29 06:10:18;;;;;;;10.95;5.72;;;7.00;99.90;;;;;;4986224;28;20033;-89
2021/01/29 06:12:57;;;;;;;12.05;5.47;;;7.10;99.90;;;;;;4939273;28;20058;-90
2021/01/29 06:15:58;;;;;;;9.50;5.25;;;7.10;99.90;;;;;;4968540;28;20034;-89
2021/01/29 06:18:36;;;;;;;7.78;4.65;;;7.20;99.90;;;;;;4984114;28;20038;-90
2021/01/29 06:21:26;;;;;;;6.20;2.92;;;7.30;99.90;;;;;;4967318;28;20070;-89
2021/01/29 06:24:17;;;;;;;5.70;2.42;;;7.40;99.90;;;;;;4988923;28;20034;-89
2021/01/29 06:27:02;;;;;;;4.25;1.83;;;7.50;99.90;;;;;;4980717;28;20031;-88
2021/01/29 06:29:35;;;;;;;4.15;1.90;;;7.60;99.90;;;;;;4983694;28;20494;-88
2021/01/29 06:32:35;;;;;;;4.53;2.10;;;7.80;99.90;;;;;;4964308;28;20043;-88
2021/01/29 06:35:32;;;;;;;5.30;2.42;;;7.80;99.90;;;;;;4975658;28;20054;-89
2021/01/29 06:38:00;;;;;;;6.00;2.72;;;7.80;99.90;;;;;;4985487;28;20038;-89
2021/01/29 06:40:42;;;;;;;5.65;2.95;;;7.90;99.90;;;;;;4986013;28;20026;-88
2021/01/29 06:43:10;;;;;;;5.93;2.83;;;7.80;99.90;;;;;;4985820;28;20034;-88
2021/01/29 06:46:12;;;;;;;5.47;3.00;;;7.80;99.90;;;;;;4985760;28;20034;-88
2021/01/29 06:49:02;;;;;;;7.55;4.25;;;7.80;99.90;;;;;;5000662;28;20016;-88
2021/01/29 06:51:47;;;;;;;9.50;4.60;;;8.00;99.90;;;;;;4983063;28;20035;-89
2021/01/29 06:54:50;;;;;;;8.43;4.97;;;8.00;99.90;;;;;;4985808;28;20034;-89
2021/01/29 06:57:43;;;;;;;8.18;4.72;;;8.00;99.90;;;;;;4987275;28;20122;-89
2021/01/29 07:00:35;;;;;;;8.23;4.80;;;8.00;99.90;;;;;;4980853;28;20028;-89
2021/01/29 07:03:16;;;;;;;9.05;4.68;;;8.00;99.90;;;;;;4968495;28;20029;-88
2021/01/29 07:06:00;;;;;;;7.53;4.55;;;8.00;99.90;;;;;;4983716;28;20030;-87
2021/01/29 07:08:52;;;;;;;8.95;4.28;;;8.00;99.90;;;;;;4967272;28;20090;-88
2021/01/29 07:11:44;;;;;;;7.05;3.78;;;8.00;99.90;;;;;;5000628;28;20039;-88
2021/01/29 07:14:39;;;;;;;8.95;4.38;;;8.00;99.90;;;;;;5001595;28;20031;-88
2021/01/29 07:17:10;;;;;;;8.82;4.47;;;8.00;99.90;;;;;;4982692;28;20031;-88
2021/01/29 07:19:51;;;;;;;7.95;3.75;;;8.00;99.90;;;;;;4969345;28;20110;-88
2021/01/29 07:22:49;;;;;;;7.88;4.18;;;8.00;99.90;;;;;;4983681;28;20050;-87
2021/01/29 07:25:32;;;;;;;8.73;3.80;;;7.90;99.90;;;;;;5001749;28;20031;-88
2021/01/29 07:28:24;;;;;;;6.65;3.50;;;8.00;99.90;;;;;;4969276;28;20035;-87
2021/01/29 07:31:09;;;;;;;6.03;3.17;;;7.90;99.90;;;;;;4966938;28;20038;-88
2021/01/29 07:34:01;;;;;;;7.18;2.90;;;7.90;99.90;;;;;;4985915;28;20042;-88
2021/01/29 07:36:54;;;;;;;7.97;3.63;;;8.00;99.90;;;;;;4963381;28;20037;-89
2021/01/29 07:39:50;;;;;;;8.30;4.50;;;8.00;99.90;;;;;;4981679;28;20042;-89
2021/01/29 07:42:37;;;;;;;9.02;4.80;;;8.00;99.90;;;;;;4984989;28;20529;-89
2021/01/29 07:45:25;;;;;;;7.57;4.20;;;8.00;99.90;;;;;;4966992;28;20041;-87
2021/01/29 07:48:26;;;;;;;9.75;4.45;;;8.00;99.90;;;;;;4997255;28;20030;-88
2021/01/29 07:51:01;;;;;;;7.90;4.68;;;8.00;99.90;;;;;;4958703;28;20567;-89
2021/01/29 07:54:05;;;;;;;9.48;3.92;;;8.00;99.90;;;;;;4972802;28;20086;-90
2021/01/29 07:56:48;;;;;;;9.00;4.32;;;8.00;99.90;;;;;;4986882;28;20035;-89
2021/01/29 07:59:52;;;;;;;10.27;4.10;;;8.00;99.90;;;;;;4986961;28;20037;-89
2021/01/29 08:02:48;;;;;;;7.43;2.92;;;8.00;99.90;;;;;;4985622;28;20042;-89
2021/01/29 08:05:38;;;;;;;7.68;2.90;;;8.00;99.90;;;;;;4971155;28;20057;-89
2021/01/29 08:08:11;;;;;;;5.78;2.42;;;8.10;99.90;;;;;;4949337;29;20158;-88
2021/01/29 08:10:38;;;;;;;6.93;1.70;;;8.10;99.90;;;;;;4952185;29;20112;-88
2021/01/29 08:13:35;;;;;;;5.28;1.75;;;8.10;99.90;;;;;;4947314;29;20514;-88
2021/01/29 08:16:37;;;;;;;4.03;1.75;;;8.10;99.90;;;;;;4951627;29;20085;-88
2021/01/29 08:19:33;;;;;;;5.32;1.30;;;8.10;99.90;;;;;;4916233;29;20047;-88
2021/01/29 08:22:24;;;;;;;6.07;1.45;;;8.10;99.90;;;;;;4948488;29;20035;-89
2021/01/29 08:24:58;;;;;;;4.85;1.30;;;8.10;99.90;;;;;;4917305;29;20031;-89
2021/01/29 08:28:03;;;;;;;3.95;0.75;;;8.00;99.90;;;;;;4950280;29;20035;-89
2021/01/29 08:31:15;;;;;;;4.93;0.90;;;8.00;99.90;;;;;;4966248;29;20053;-89
2021/01/29 08:34:29;;;;;;;5.80;1.40;;;8.00;99.90;;;;;;4918548;29;20038;-89
2021/01/29 08:37:14;;;;;;;7.07;2.60;;;8.10;99.90;;;;;;4941364;28;20054;-89
2021/01/29 08:40:07;;;;;;;15.18;5.60;;;8.10;99.90;;;;;;4949103;29;20040;-90
2021/01/29 08:43:03;;;;;;;10.00;5.18;;;8.20;99.90;;;;;;4947572;29;20468;-89
2021/01/29 08:45:40;;;;;;;9.05;4.57;;;8.30;99.90;;;;;;4972994;28;20042;-89
2021/01/29 08:48:17;;;;;;;10.05;4.30;;;8.30;99.90;;;;;;4985684;28;20467;-89
2021/01/29 08:50:58;;;;;;;11.40;3.97;;;8.40;99.90;;;;;;4985678;28;20098;-90
2021/01/29 08:53:51;;;;;;;14.45;3.67;;;8.30;99.90;;;;;;4986947;28;20101;-88
2021/01/29 08:56:25;;;;;;;12.18;2.78;;;8.30;99.90;;;;;;5002795;28;20109;-88
2021/01/29 08:59:00;;;;;;;11.15;2.95;;;8.40;99.90;;;;;;5002344;28;20027;-88
2021/01/29 09:01:44;;;;;;;11.27;2.22;;;8.40;99.90;;;;;;4970080;28;20050;-88
2021/01/29 09:04:46;;;;;;;15.15;2.90;;;8.30;99.90;;;;;;4984862;28;20077;-89
2021/01/29 09:07:24;;;;;;;16.38;3.42;;;8.30;99.90;;;;;;4965529;28;20464;-88
2021/01/29 09:09:51;;;;;;;15.70;3.83;;;8.30;99.90;;;;;;4948246;29;20031;-87
2021/01/29 09:12:26;;;;;;;18.77;4.50;;;8.30;99.90;;;;;;4931240;29;20047;-87
2021/01/29 09:14:57;;;;;;;26.17;5.05;;;8.30;99.90;;;;;;4933282;28;20030;-87
2021/01/29 09:17:40;;;;;;;25.05;3.58;;;8.30;99.90;;;;;;4965373;29;20058;-89
2021/01/29 09:20:07;;;;;;;24.15;4.13;;;8.30;99.90;;;;;;4933363;29;20027;-87
2021/01/29 09:22:53;;;;;;;26.02;3.50;;;8.30;99.90;;;;;;4949127;29;20035;-88
2021/01/29 09:25:48;;;;;;;29.60;3.88;;;8.30;99.90;;;;;;4948894;29;20046;-88
2021/01/29 09:28:26;;;;;;;30.17;3.05;;;8.30;99.90;;;;;;4933256;29;20031;-87
2021/01/29 09:31:19;;;;;;;20.00;2.50;;;8.20;99.90;;;;;;4954471;29;20059;-89
2021/01/29 09:34:07;;;;;;;27.77;3.53;;;8.20;99.90;;;;;;4946241;29;20099;-88
2021/01/29 09:36:38;;;;;;;20.27;2.92;;;8.20;99.90;;;;;;4948948;29;20051;-88
2021/01/29 09:39:07;;;;;;;30.88;2.50;;;8.20;99.90;;;;;;4946224;29;20067;-88
2021/01/29 09:41:53;;;;;;;24.65;3.42;;;8.10;99.90;;;;;;4947632;29;20035;-88
2021/01/29 09:44:31;;;;;;;19.23;2.47;;;8.10;99.90;;;;;;4960281;28;20035;-88
2021/01/29 09:47:00;;;;;;;23.95;2.65;;;8.10;99.90;;;;;;4985335;28;20035;-89
2021/01/29 09:49:31;;;;;;;34.75;2.70;;;8.10;99.90;;;;;;4989515;28;20042;-89
2021/01/29 09:52:00;;;;;;;23.30;2.53;;;8.00;99.90;;;;;;4984970;28;20039;-87
2021/01/29 09:54:42;;;;;;;36.47;3.47;;;8.00;99.90;;;;;;4967817;28;20090;-88
2021/01/29 09:57:33;;;;;;;37.95;3.28;;;8.00;99.90;;;;;;4993349;28;20035;-88
2021/01/29 10:00:20;;;;;;;30.05;3.25;;;8.00;99.90;;;;;;4969128;28;20439;-88
2021/01/29 10:03:10;;;;;;;43.40;3.78;;;8.00;99.90;;;;;;4969318;28;20035;-88
2021/01/29 10:06:03;;;;;;;51.17;4.00;;;8.00;99.90;;;;;;4977035;28;20039;-88
2021/01/29 10:08:29;;;;;;;27.48;3.40;;;8.00;99.90;;;;;;5000609;28;20070;-88
2021/01/29 10:11:17;;;;;;;26.55;2.95;;;8.00;99.90;;;;;;4966853;28;20050;-88
2021/01/29 10:14:02;;;;;;;34.65;3.10;;;8.00;99.90;;;;;;5002158;28;20041;-88
2021/01/29 10:16:31;;;;;;;33.85;2.50;;;8.10;99.90;;;;;;4968284;28;20058;-88
2021/01/29 10:19:12;;;;;;;35.15;2.45;;;8.10;99.90;;;;;;4985759;28;20094;-87
2021/01/29 10:21:59;;;;;;;31.63;3.10;;;8.10;99.90;;;;;;4969369;28;20493;-89
2021/01/29 10:24:47;;;;;;;34.25;3.42;;;8.20;99.90;;;;;;4990082;28;20103;-88
2021/01/29 10:27:54;;;;;;;34.92;3.47;;;8.10;99.90;;;;;;4968892;28;20302;-88
2021/01/29 10:30:47;;;;;;;33.40;2.70;;;8.20;99.90;;;;;;4979404;28;20066;-90
2021/01/29 10:33:24;;;;;;;28.98;3.42;;;8.20;99.90;;;;;;5001919;28;20299;-89
2021/01/29 10:35:58;;;;;;;30.35;2.55;;;8.20;99.90;;;;;;4966370;28;20153;-88
2021/01/29 10:38:48;;;;;;;37.70;2.85;;;8.20;99.90;;;;;;5001772;28;20031;-88
2021/01/29 10:41:18;;;;;;;30.58;2.25;;;8.30;99.90;;;;;;4957375;29;20043;-89
2021/01/29 10:44:19;;;;;;;39.40;3.60;;;8.40;99.90;;;;;;4984005;28;20046;-87
2021/01/29 10:47:03;;;;;;;34.90;3.15;;;8.40;99.90;;;;;;4963519;28;20039;-88
2021/01/29 10:49:46;;;;;;;31.20;3.35;;;8.50;99.90;;;;;;4983381;28;20023;-88
2021/01/29 10:52:53;;;;;;;29.33;3.20;;;8.60;99.90;;;;;;4982851;28;20039;-89
2021/01/29 10:55:34;;;;;;;37.67;3.38;;;8.60;99.90;;;;;;4982936;28;20507;-88
2021/01/29 10:58:18;;;;;;;39.67;3.70;;;8.70;99.90;;;;;;4985276;28;20050;-89
2021/01/29 11:00:52;;;;;;;29.73;2.60;;;8.80;99.90;;;;;;4984661;28;20058;-89
2021/01/29 11:03:39;;;;;;;37.67;2.97;;;8.80;99.90;;;;;;4967363;28;20033;-88
2021/01/29 11:06:09;;;;;;;29.95;1.80;;;8.80;99.90;;;;;;4977674;28;20085;-88
2021/01/29 11:08:44;;;;;;;28.50;2.83;;;8.90;99.90;;;;;;4965819;28;20050;-88
2021/01/29 11:11:22;;;;;;;34.83;2.50;;;8.90;99.90;;;;;;4966331;28;20050;-88
2021/01/29 11:14:00;;;;;;;30.38;2.67;;;9.00;99.90;;;;;;4968831;28;20033;-88
2021/01/29 11:16:39;;;;;;;20.52;2.05;;;9.00;99.90;;;;;;4967419;28;20037;-88
2021/01/29 11:19:18;;;;;;;25.00;1.35;;;9.10;99.90;;;;;;4982384;28;20027;-88
2021/01/29 11:22:00;;;;;;;22.10;1.95;;;9.20;99.90;;;;;;4978598;28;20027;-88
2021/01/29 11:24:44;;;;;;;25.75;2.25;;;9.20;99.90;;;;;;4966074;28;20031;-88
2021/01/29 11:27:25;;;;;;;28.73;2.17;;;9.30;99.90;;;;;;4986917;28;20035;-88
2021/01/29 11:30:03;;;;;;;33.60;3.25;;;9.30;99.90;;;;;;4988730;28;20027;-87
2021/01/29 11:32:35;;;;;;;31.15;2.97;;;9.30;99.90;;;;;;4972615;28;20046;-89
2021/01/29 11:35:23;;;;;;;28.60;2.75;;;9.30;99.90;;;;;;4970259;28;20063;-88
2021/01/29 11:37:54;;;;;;;23.30;1.90;;;9.30;99.90;;;;;;4970568;28;20062;-88
2021/01/29 11:40:38;;;;;;;24.23;2.42;;;9.30;99.90;;;;;;4966916;28;20030;-88
2021/01/29 11:43:09;;;;;;;30.80;2.35;;;9.30;99.90;;;;;;4986060;28;20035;-88
2021/01/29 11:45:48;;;;;;;30.13;2.10;;;9.30;99.90;;;;;;4986613;28;20035;-88
2021/01/29 11:49:11;;;;;;;29.88;2.17;;;9.40;99.90;;;;;;4971365;28;20452;-88
2021/01/29 11:52:02;;;;;;;34.83;3.28;;;9.40;99.90;;;;;;4901029;29;20155;-88
2021/01/29 11:54:45;;;;;;;20.20;2.10;;;9.50;99.90;;;;;;4924257;29;20040;-90
2021/01/29 11:57:17;;;;;;;19.70;1.65;;;9.40;99.90;;;;;;4912349;29;20077;-88
2021/01/29 11:59:55;;;;;;;22.27;1.55;;;9.40;99.90;;;;;;4924228;29;20040;-88
2021/01/29 12:02:41;;;;;;;25.92;1.85;;;9.30;99.90;;;;;;4898021;29;20043;-86
2021/01/29 12:05:31;;;;;;;18.42;2.25;;;9.30;99.90;;;;;;4906371;29;20052;-87
2021/01/29 12:08:23;;;;;;;17.08;1.17;;;9.30;99.90;;;;;;4889616;29;20550;-89
2021/01/29 12:11:12;;;;;;;16.73;2.08;;;9.20;99.90;;;;;;4875330;29;20533;-88
2021/01/29 12:13:57;;;;;;;16.25;1.02;;;9.30;99.90;;;;;;4891590;29;20060;-88
2021/01/29 12:16:27;;;;;;;21.88;1.20;;;9.30;99.90;;;;;;4888590;29;20517;-88
2021/01/29 12:18:55;;;;;;;15.63;0.90;;;9.20;99.90;;;;;;4868039;29;20060;-87
2021/01/29 12:21:23;;;;;;;16.05;1.10;;;9.20;99.90;;;;;;4891213;29;20062;-88
2021/01/29 12:24:06;;;;;;;15.18;1.35;;;9.10;99.90;;;;;;4881880;29;20032;-88
2021/01/29 12:26:45;;;;;;;15.13;1.05;;;9.20;99.90;;;;;;4925418;29;20046;-86
2021/01/29 12:29:29;;;;;;;25.15;1.38;;;9.20;99.90;;;;;;4930369;29;20045;-87
2021/01/29 12:32:03;;;;;;;16.75;2.30;;;9.20;99.90;;;;;;4854396;29;20147;-87
2021/01/29 12:34:43;;;;;;;26.30;1.88;;;9.20;99.90;;;;;;4890005;29;20028;-88
2021/01/29 12:37:28;;;;;;;19.90;1.80;;;9.10;99.90;;;;;;4929688;29;20038;-88
2021/01/29 12:40:26;;;;;;;22.48;2.63;;;9.10;99.90;;;;;;4944829;29;20106;-88
2021/01/29 12:43:21;;;;;;;24.35;1.48;;;9.20;99.90;;;;;;4928101;29;20043;-88
2021/01/29 12:46:10;;;;;;;21.20;1.30;;;9.20;99.90;;;;;;4990194;28;20046;-87
2021/01/29 12:49:01;;;;;;;21.95;1.63;;;9.30;99.90;;;;;;4978401;28;20039;-88
2021/01/29 12:51:34;;;;;;;23.08;1.50;;;9.20;99.90;;;;;;4986100;28;20047;-88
2021/01/29 12:54:11;;;;;;;23.33;2.10;;;9.30;99.90;;;;;;4988707;28;20031;-87
2021/01/29 12:56:36;;;;;;;22.13;1.67;;;9.30;99.90;;;;;;4970308;28;20051;-88
2021/01/29 12:59:04;;;;;;;18.45;2.03;;;9.40;99.90;;;;;;4967285;28;20039;-87
2021/01/29 13:01:59;;;;;;;21.10;1.92;;;9.30;99.90;;;;;;4964653;28;20077;-87
2021/01/29 13:04:35;;;;;;;18.23;2.40;;;9.40;99.90;;;;;;4927446;28;20507;-89
2021/01/29 13:07:06;;;;;;;23.15;2.50;;;9.30;99.90;;;;;;4946748;28;20073;-89
2021/01/29 13:10:02;;;;;;;23.27;1.73;;;9.20;99.90;;;;;;4982126;28;20039;-89
2021/01/29 13:12:54;;;;;;;20.25;1.70;;;9.00;99.90;;;;;;4953319;28;20125;-88
2021/01/29 13:15:44;;;;;;;24.23;2.95;;;9.00;99.90;;;;;;4984305;28;20026;-87
2021/01/29 13:18:20;;;;;;;20.02;1.70;;;9.00;99.90;;;;;;4992646;28;20027;-89
2021/01/29 13:20:54;;;;;;;17.58;1.10;;;8.90;99.90;;;;;;4987608;28;20077;-88
2021/01/29 13:23:36;;;;;;;19.20;1.73;;;8.90;99.90;;;;;;4970506;28;20027;-88
2021/01/29 13:26:12;;;;;;;28.40;2.08;;;8.90;99.90;;;;;;4961599;28;20027;-87
2021/01/29 13:28:55;;;;;;;17.95;1.58;;;8.90;99.90;;;;;;4970105;28;20094;-87
2021/01/29 13:31:26;;;;;;;20.70;1.73;;;8.90;99.90;;;;;;4991769;28;20047;-87
2021/01/29 13:34:00;;;;;;;17.08;1.77;;;8.80;99.90;;;;;;4983672;28;20023;-87
2021/01/29 13:36:34;;;;;;;20.92;2.15;;;8.80;99.90;;;;;;4983791;28;20043;-87
2021/01/29 13:39:18;;;;;;;17.65;1.30;;;8.90;99.90;;;;;;4968322;28;20463;-88
2021/01/29 13:42:13;;;;;;;17.88;1.75;;;8.90;99.90;;;;;;4984253;28;20027;-87
2021/01/29 13:44:52;;;;;;;18.13;1.38;;;8.90;99.90;;;;;;4990875;28;20525;-88
2021/01/29 13:47:32;;;;;;;26.88;2.88;;;9.00;99.90;;;;;;4984017;28;20039;-86
2021/01/29 13:50:16;;;;;;;18.40;1.40;;;8.90;99.90;;;;;;4983468;28;20050;-87
2021/01/29 13:52:51;;;;;;;21.58;2.17;;;8.90;99.90;;;;;;4981231;28;20046;-88
2021/01/29 13:55:28;;;;;;;12.73;1.00;;;8.80;99.90;;;;;;4983704;28;20046;-88
2021/01/29 13:58:01;;;;;;;21.17;2.88;;;8.80;99.90;;;;;;4968384;28;20027;-87
2021/01/29 14:00:32;;;;;;;17.85;1.33;;;8.80;99.90;;;;;;4963872;28;20026;-88
2021/01/29 14:03:12;;;;;;;27.48;1.98;;;8.80;99.90;;;;;;5001472;28;20058;-87
2021/01/29 14:05:41;;;;;;;17.45;1.85;;;8.80;99.90;;;;;;4972604;28;20061;-88
2021/01/29 14:08:07;;;;;;;23.33;1.52;;;8.80;99.90;;;;;;4981809;28;20129;-87
2021/01/29 14:10:35;;;;;;;9.00;0.90;;;8.80;99.90;;;;;;4966327;28;20105;-86
2021/01/29 14:13:34;;;;;;;13.73;0.70;;;8.80;99.90;;;;;;4967515;28;20030;-86
2021/01/29 14:16:20;;;;;;;15.13;1.52;;;8.90;99.90;;;;;;4959301;28;20098;-86
2021/01/29 14:18:57;;;;;;;15.77;1.42;;;9.10;99.90;;;;;;4981846;28;20099;-87
2021/01/29 14:22:04;;;;;;;25.15;2.50;;;9.10;99.90;;;;;;4984098;28;20101;-89
2021/01/29 14:25:00;;;;;;;21.75;2.05;;;9.10;99.90;;;;;;4973862;28;20186;-87